Nearby METAR Reports

 

KSJC - San Jose, California, USA
Distance from station: NE 9mi, 14km
Updated: 08/23/2017 12:53pm
Haze, Overcast
Haze, Overcast
 Wind from varies
Wind: varies 3 mph , 6 km/h
Temperature: 66°F , 19°C
Dew Point: 57°F , 14°C
Humidity: 73%
Barometer: 30.00 inHg , 1015.9 hPa
Summary: Haze
Clouds: Overcast
Visibility: 5 miles , 8 km
Cloud details: Few Clouds 300 ft
Partly cloudy 800 ft
Overcast 1200 ft
2017/08/23 16:53 KSJC 231653Z VRB03KT 5SM HZ FEW003 SCT008 OVC012 19/14 A3000 RMK AO2 SLP156 T01890144
KNUQ - Moffett Nas/Mtn, California, USA
Distance from station: N 9mi, 14km
Updated: 08/23/2017 12:56pm
Overcast
Overcast
 Wind from NNE
Wind: NNE 6 mph , 9 km/h
Temperature: 64°F , 18°C
Dew Point: 57°F , 14°C
Humidity: 78%
Barometer: 30.01 inHg , 1016.3 hPa
Clouds: Overcast
Visibility: 7 miles , 11 km
Cloud details: Overcast 1300 ft
2017/08/23 16:56 KNUQ 231656Z 02005KT 7SM OVC013 18/14 A3001 RMK AO2 SLP163 T01830144
KPAO - Palo Alto, California, USA
Distance from station: NNW 14mi, 23km
Updated: 08/23/2017 12:47pm
Overcast
Overcast
 Wind from calm
Wind: Calm
Temperature: 64°F , 18°C
Dew Point: 59°F , 15°C
Humidity: 83%
Barometer: 30.00 inHg , 1015.9 hPa
Clouds: Overcast
Visibility: 10 miles , 16 km
Cloud details: Overcast 1300 ft
2017/08/23 16:47 KPAO 231647Z 00000KT 10SM OVC013 18/15 A3000
 
KRHV - San Jose/Reid, California, USA
Distance from station: ENE 12mi, 19km
Updated: 08/23/2017 1:13pm
Haze, Clear
Haze, Clear
 Wind from varies
Wind: varies 6 mph , 9 km/h
Temperature: 68°F , 20°C
Dew Point: 59°F , 15°C
Humidity: 73%
Barometer: 30.02 inHg , 1016.6 hPa
Summary: Haze
Clouds: Clear
Visibility: 4 miles , 6 km
2017/08/23 17:13 KRHV 231713Z VRB05KT 4SM HZ SKC 20/15 A3002
KOAK - Oakland, California, USA
Distance from station: NNW 31mi, 50km
Updated: 08/23/2017 12:53pm
Mist, Overcast
Mist, Overcast
 Wind from WNW
Wind: WNW 7 mph , 11 km/h
Temperature: 61°F , 16°C
Dew Point: 57°F , 14°C
Humidity: 88%
Barometer: 30.01 inHg , 1016.3 hPa
Summary: Mist
Clouds: Overcast
Visibility: 5 miles , 8 km
Cloud details: Overcast 1000 ft
2017/08/23 16:53 KOAK 231653Z 29006KT 5SM BR OVC010 16/14 A3001 RMK AO2 SLP161 T01610144 $
KSQL - San Carlos Airpo, California, USA
Distance from station: NW 21mi, 34km
Updated: 08/23/2017 1:09pm
Haze, Partly cloudy
Haze, Partly cloudy
 Wind from NNE
Wind: NNE 5 mph , 7 km/h
Temperature: 66°F , 19°C
Dew Point: 57°F , 14°C
Humidity: 73%
Barometer: 30.01 inHg , 1016.3 hPa
Summary: Haze
Clouds: Partly cloudy
Visibility: 6 miles , 10 km
Cloud details: Partly cloudy 1500 ft
2017/08/23 17:09 KSQL 231709Z 02004KT 6SM HZ SCT015 19/14 A3001
 
KSFO - San Francisco, California, USA
Distance from station: NW 30mi, 49km
Updated: 08/23/2017 12:56pm
Overcast
Overcast
 Wind from WNW
Wind: WNW 7 mph , 11 km/h
Temperature: 63°F , 17°C
Dew Point: 55°F , 13°C
Humidity: 77%
Barometer: 29.99 inHg , 1015.6 hPa
Clouds: Overcast
Visibility: 9 miles , 14 km
Cloud details: Partly cloudy 900 ft
Overcast 1100 ft
2017/08/23 16:56 KSFO 231656Z 30006KT 9SM SCT009 OVC011 17/13 A2999 RMK AO2 SLP156 T01720133
KE16 - San Martin, California, USA
Distance from station: ESE 27mi, 43km
Updated: 08/23/2017 1:15pm
Clear
Clear
 Wind from calm
Wind: Calm
Temperature: 66°F , 19°C
Dew Point: 57°F , 14°C
Humidity: 73%
Barometer: 30.01 inHg , 1016.3 hPa
Clouds: Clear
Visibility: 7 miles , 11 km
2017/08/23 17:15 KE16 231715Z AUTO 00000KT 7SM CLR 19/14 A3001 RMK AO2
KWVI - Watsonville, California, USA
Distance from station: SSE 27mi, 44km
Updated: 08/23/2017 1:16pm
Mist, Overcast
Mist, Overcast
 Wind from calm
Wind: Calm
Temperature: 61°F , 16°C
Dew Point: 57°F , 14°C
Humidity: 88%
Barometer: 30.01 inHg , 1016.3 hPa
Summary: Mist
Clouds: Overcast
Visibility: 6 miles , 10 km
Cloud details: Overcast 500 ft
2017/08/23 17:16 KWVI 231716Z AUTO 00000KT 6SM BR OVC005 16/14 A3001 RMK AO2 T01610144 TSNO
 
KHAF - Half Moon Bay, California, USA
Distance from station: WNW 31mi, 50km
Updated: 08/23/2017 1:15pm
Haze, Overcast
Haze, Overcast
 Wind from WSW
Wind: WSW 6 mph , 9 km/h
Temperature: 59°F , 15°C
Barometer: 29.98 inHg , 1015.2 hPa
Summary: Haze
Clouds: Overcast
Visibility: 5 miles , 8 km
Cloud details: Overcast 600 ft
2017/08/23 17:15 KHAF 231715Z AUTO 25005KT 5SM HZ OVC006 15/ A2998 RMK AO2
KHWD - Hayward, California, USA
Distance from station: N 28mi, 44km
Updated: 08/23/2017 1:01pm
Haze, Overcast
Haze, Overcast
 Wind from NW
Wind: NW 5 mph , 7 km/h
Temperature: 63°F , 17°C
Dew Point: 54°F , 12°C
Humidity: 73%
Barometer: 30.00 inHg , 1015.9 hPa
Summary: Haze
Clouds: Overcast
Visibility: 5 miles , 8 km
Cloud details: Overcast 1100 ft
2017/08/23 17:01 KHWD 231701Z 31004KT 5SM HZ OVC011 17/12 A3000 RMK AO2 T01720122 $
KLVK - Livermore, California, USA
Distance from station: NNE 31mi, 51km
Updated: 08/23/2017 12:53pm
Haze, Clear
Haze, Clear
 Wind from W
Wind: W 7 mph , 11 km/h
Temperature: 66°F , 19°C
Dew Point: 57°F , 14°C
Humidity: 73%
Barometer: 29.98 inHg , 1015.2 hPa
Summary: Haze
Clouds: Clear
Visibility: 5 miles , 8 km
2017/08/23 16:53 KLVK 231653Z 27006KT 5SM HZ CLR 19/14 A2998 RMK AO2 SLP148 T01940139